sensor_id;sensor_type;location;lat;lon;timestamp;pressure;altitude;pressure_sealevel;temperature;humidity
75740;BME280;64357;51.344;6.550;2023-08-06T00:01:48;99968.06;;;16.33;100.00
75740;BME280;64357;51.344;6.550;2023-08-06T00:04:14;99973.13;;;16.31;100.00
75740;BME280;64357;51.344;6.550;2023-08-06T00:06:39;99965.28;;;16.30;100.00
75740;BME280;64357;51.344;6.550;2023-08-06T00:09:05;99957.28;;;16.25;100.00
75740;BME280;64357;51.344;6.550;2023-08-06T00:11:30;99955.47;;;16.24;100.00
75740;BME280;64357;51.344;6.550;2023-08-06T00:13:56;99962.53;;;16.26;100.00
75740;BME280;64357;51.344;6.550;2023-08-06T00:16:21;99956.00;;;16.18;100.00
75740;BME280;64357;51.344;6.550;2023-08-06T00:18:46;99950.66;;;16.15;100.00
75740;BME280;64357;51.344;6.550;2023-08-06T00:21:14;99957.88;;;16.21;100.00
75740;BME280;64357;51.344;6.550;2023-08-06T00:23:40;99950.84;;;16.05;100.00
75740;BME280;64357;51.344;6.550;2023-08-06T00:26:06;99937.13;;;15.91;100.00
75740;BME280;64357;51.344;6.550;2023-08-06T00:28:31;99941.38;;;15.91;100.00
75740;BME280;64357;51.344;6.550;2023-08-06T00:30:57;99927.41;;;15.87;100.00
75740;BME280;64357;51.344;6.550;2023-08-06T00:33:23;99934.69;;;16.21;100.00
75740;BME280;64357;51.344;6.550;2023-08-06T00:35:51;99922.69;;;16.21;100.00
75740;BME280;64357;51.344;6.550;2023-08-06T00:38:16;99927.94;;;16.23;100.00
75740;BME280;64357;51.344;6.550;2023-08-06T00:40:41;99938.03;;;16.33;100.00
75740;BME280;64357;51.344;6.550;2023-08-06T00:43:07;99932.09;;;16.21;100.00
75740;BME280;64357;51.344;6.550;2023-08-06T00:45:35;99938.22;;;16.23;100.00
75740;BME280;64357;51.344;6.550;2023-08-06T00:48:01;99925.69;;;16.14;100.00
75740;BME280;64357;51.344;6.550;2023-08-06T00:50:29;99932.63;;;16.15;100.00
75740;BME280;64357;51.344;6.550;2023-08-06T00:52:55;99926.78;;;16.05;100.00
75740;BME280;64357;51.344;6.550;2023-08-06T00:55:23;99934.91;;;16.11;100.00
75740;BME280;64357;51.344;6.550;2023-08-06T00:57:49;99923.53;;;16.07;100.00
75740;BME280;64357;51.344;6.550;2023-08-06T01:00:16;99935.41;;;16.18;100.00
75740;BME280;64357;51.344;6.550;2023-08-06T01:02:41;99906.75;;;16.00;100.00
75740;BME280;64357;51.344;6.550;2023-08-06T01:05:16;99936.03;;;16.01;100.00
75740;BME280;64357;51.344;6.550;2023-08-06T01:11:02;99941.88;;;15.85;100.00
75740;BME280;64357;51.344;6.550;2023-08-06T01:13:38;99923.16;;;15.75;100.00
75740;BME280;64357;51.344;6.550;2023-08-06T01:16:07;99930.09;;;15.76;100.00
75740;BME280;64357;51.344;6.550;2023-08-06T01:18:34;99900.63;;;15.59;100.00
75740;BME280;64357;51.344;6.550;2023-08-06T01:21:00;99927.50;;;15.76;100.00
75740;BME280;64357;51.344;6.550;2023-08-06T01:23:25;99927.81;;;15.80;100.00
75740;BME280;64357;51.344;6.550;2023-08-06T01:26:11;99926.91;;;15.80;100.00
75740;BME280;64357;51.344;6.550;2023-08-06T01:28:57;99927.72;;;15.79;100.00
75740;BME280;64357;51.344;6.550;2023-08-06T01:31:27;99931.97;;;15.78;100.00
75740;BME280;64357;51.344;6.550;2023-08-06T01:33:58;99930.16;;;15.77;100.00
75740;BME280;64357;51.344;6.550;2023-08-06T01:36:25;99924.13;;;15.77;100.00
75740;BME280;64357;51.344;6.550;2023-08-06T01:38:52;99930.28;;;15.79;100.00
75740;BME280;64357;51.344;6.550;2023-08-06T01:41:20;99909.97;;;15.70;100.00
75740;BME280;64357;51.344;6.550;2023-08-06T01:43:46;99923.38;;;15.78;100.00
75740;BME280;64357;51.344;6.550;2023-08-06T01:46:13;99919.47;;;15.71;100.00
75740;BME280;64357;51.344;6.550;2023-08-06T01:48:39;99920.50;;;15.73;100.00
75740;BME280;64357;51.344;6.550;2023-08-06T01:51:04;99923.25;;;15.76;100.00
75740;BME280;64357;51.344;6.550;2023-08-06T01:53:31;99907.31;;;15.68;100.00
75740;BME280;64357;51.344;6.550;2023-08-06T01:55:57;99913.66;;;15.73;100.00
75740;BME280;64357;51.344;6.550;2023-08-06T01:58:22;99903.84;;;15.68;100.00
75740;BME280;64357;51.344;6.550;2023-08-06T02:00:48;99912.56;;;15.70;100.00
75740;BME280;64357;51.344;6.550;2023-08-06T02:03:13;99909.00;;;15.68;100.00
75740;BME280;64357;51.344;6.550;2023-08-06T02:05:41;99908.91;;;15.66;100.00
75740;BME280;64357;51.344;6.550;2023-08-06T02:08:06;99909.72;;;15.65;100.00
75740;BME280;64357;51.344;6.550;2023-08-06T02:10:32;99911.50;;;15.66;100.00
75740;BME280;64357;51.344;6.550;2023-08-06T02:12:57;99902.75;;;15.64;100.00
75740;BME280;64357;51.344;6.550;2023-08-06T02:15:22;99889.88;;;15.51;100.00
75740;BME280;64357;51.344;6.550;2023-08-06T02:17:48;99904.00;;;15.58;100.00
75740;BME280;64357;51.344;6.550;2023-08-06T02:20:16;99894.13;;;15.51;100.00
75740;BME280;64357;51.344;6.550;2023-08-06T02:22:41;99900.25;;;15.53;100.00
75740;BME280;64357;51.344;6.550;2023-08-06T02:25:07;99903.31;;;15.47;100.00
75740;BME280;64357;51.344;6.550;2023-08-06T02:27:34;99895.50;;;15.45;100.00
75740;BME280;64357;51.344;6.550;2023-08-06T02:30:00;99898.97;;;15.46;100.00
75740;BME280;64357;51.344;6.550;2023-08-06T02:32:25;99897.78;;;15.41;100.00
75740;BME280;64357;51.344;6.550;2023-08-06T02:34:51;99895.69;;;15.35;100.00
75740;BME280;64357;51.344;6.550;2023-08-06T02:37:16;99887.31;;;15.38;100.00
75740;BME280;64357;51.344;6.550;2023-08-06T02:39:41;99897.38;;;15.35;100.00
75740;BME280;64357;51.344;6.550;2023-08-06T02:42:09;99889.38;;;15.30;100.00
75740;BME280;64357;51.344;6.550;2023-08-06T02:44:35;99892.06;;;15.32;100.00
75740;BME280;64357;51.344;6.550;2023-08-06T02:47:00;99887.78;;;15.32;100.00
75740;BME280;64357;51.344;6.550;2023-08-06T02:49:26;99873.94;;;15.30;100.00
75740;BME280;64357;51.344;6.550;2023-08-06T02:51:51;99883.31;;;15.30;100.00
75740;BME280;64357;51.344;6.550;2023-08-06T02:54:19;99874.22;;;15.22;100.00
75740;BME280;64357;51.344;6.550;2023-08-06T02:56:47;99879.97;;;15.31;100.00
75740;BME280;64357;51.344;6.550;2023-08-06T02:59:13;99868.19;;;15.21;100.00
75740;BME280;64357;51.344;6.550;2023-08-06T03:01:38;99869.88;;;15.20;100.00
75740;BME280;64357;51.344;6.550;2023-08-06T03:04:04;99866.59;;;15.23;100.00
75740;BME280;64357;51.344;6.550;2023-08-06T03:06:29;99870.94;;;15.24;100.00
75740;BME280;64357;51.344;6.550;2023-08-06T03:08:55;99869.59;;;15.42;100.00
75740;BME280;64357;51.344;6.550;2023-08-06T03:11:22;99868.47;;;15.39;100.00
75740;BME280;64357;51.344;6.550;2023-08-06T03:13:48;99872.94;;;15.28;100.00
75740;BME280;64357;51.344;6.550;2023-08-06T03:16:16;99875.00;;;15.20;100.00
75740;BME280;64357;51.344;6.550;2023-08-06T03:18:43;99868.97;;;15.20;100.00
75740;BME280;64357;51.344;6.550;2023-08-06T03:21:09;99862.72;;;15.16;100.00
75740;BME280;64357;51.344;6.550;2023-08-06T03:23:34;99867.22;;;15.19;100.00
75740;BME280;64357;51.344;6.550;2023-08-06T03:26:02;99855.22;;;15.19;100.00
75740;BME280;64357;51.344;6.550;2023-08-06T03:28:28;99853.53;;;15.33;100.00
75740;BME280;64357;51.344;6.550;2023-08-06T03:31:03;99846.03;;;15.63;100.00
75740;BME280;64357;51.344;6.550;2023-08-06T03:33:28;99860.56;;;15.76;100.00
75740;BME280;64357;51.344;6.550;2023-08-06T03:35:56;99844.94;;;15.72;100.00
75740;BME280;64357;51.344;6.550;2023-08-06T03:38:21;99860.56;;;15.76;100.00
75740;BME280;64357;51.344;6.550;2023-08-06T03:40:48;99842.66;;;15.64;100.00
75740;BME280;64357;51.344;6.550;2023-08-06T03:43:14;99859.28;;;15.69;100.00
75740;BME280;64357;51.344;6.550;2023-08-06T03:45:40;99850.69;;;15.68;100.00
75740;BME280;64357;51.344;6.550;2023-08-06T03:48:06;99851.66;;;15.70;100.00
75740;BME280;64357;51.344;6.550;2023-08-06T03:50:31;99855.13;;;15.71;100.00
75740;BME280;64357;51.344;6.550;2023-08-06T03:52:56;99852.66;;;15.72;100.00
75740;BME280;64357;51.344;6.550;2023-08-06T03:55:24;99859.66;;;15.75;100.00
75740;BME280;64357;51.344;6.550;2023-08-06T03:57:50;99858.59;;;15.71;100.00
75740;BME280;64357;51.344;6.550;2023-08-06T04:00:15;99855.22;;;15.72;100.00
75740;BME280;64357;51.344;6.550;2023-08-06T04:02:41;99848.91;;;15.67;100.00
75740;BME280;64357;51.344;6.550;2023-08-06T04:05:06;99844.81;;;15.71;100.00
75740;BME280;64357;51.344;6.550;2023-08-06T04:07:34;99860.00;;;15.66;100.00
75740;BME280;64357;51.344;6.550;2023-08-06T04:10:05;99850.56;;;15.54;100.00
75740;BME280;64357;51.344;6.550;2023-08-06T04:12:30;99850.03;;;15.59;100.00
75740;BME280;64357;51.344;6.550;2023-08-06T04:15:00;99855.75;;;15.67;100.00
75740;BME280;64357;51.344;6.550;2023-08-06T04:17:25;99845.69;;;15.58;100.00
75740;BME280;64357;51.344;6.550;2023-08-06T04:19:52;99857.22;;;15.63;100.00
75740;BME280;64357;51.344;6.550;2023-08-06T04:22:18;99858.91;;;15.36;100.00
75740;BME280;64357;51.344;6.550;2023-08-06T04:24:44;99856.13;;;15.20;100.00
75740;BME280;64357;51.344;6.550;2023-08-06T04:27:10;99848.19;;;15.04;100.00
75740;BME280;64357;51.344;6.550;2023-08-06T04:29:38;99852.13;;;15.12;100.00
75740;BME280;64357;51.344;6.550;2023-08-06T04:32:06;99854.03;;;15.14;100.00
75740;BME280;64357;51.344;6.550;2023-08-06T04:34:32;99857.50;;;15.15;100.00
75740;BME280;64357;51.344;6.550;2023-08-06T04:39:23;99858.88;;;15.10;100.00
75740;BME280;64357;51.344;6.550;2023-08-06T04:41:48;99856.13;;;15.07;100.00
75740;BME280;64357;51.344;6.550;2023-08-06T04:44:16;99861.34;;;15.08;100.00
75740;BME280;64357;51.344;6.550;2023-08-06T04:46:44;99859.28;;;15.03;100.00
75740;BME280;64357;51.344;6.550;2023-08-06T04:49:09;99854.63;;;14.97;100.00
75740;BME280;64357;51.344;6.550;2023-08-06T04:51:37;99850.34;;;14.98;100.00
75740;BME280;64357;51.344;6.550;2023-08-06T04:54:02;99866.31;;;15.18;100.00
75740;BME280;64357;51.344;6.550;2023-08-06T04:56:28;99863.81;;;15.46;100.00
75740;BME280;64357;51.344;6.550;2023-08-06T04:58:53;99858.56;;;15.58;100.00
75740;BME280;64357;51.344;6.550;2023-08-06T05:01:21;99860.59;;;15.62;100.00
75740;BME280;64357;51.344;6.550;2023-08-06T05:03:47;99858.31;;;15.54;100.00
75740;BME280;64357;51.344;6.550;2023-08-06T05:06:16;99871.56;;;15.73;100.00
75740;BME280;64357;51.344;6.550;2023-08-06T05:08:42;99863.22;;;15.77;100.00
75740;BME280;64357;51.344;6.550;2023-08-06T05:11:07;99867.59;;;15.78;100.00
75740;BME280;64357;51.344;6.550;2023-08-06T05:13:35;99865.16;;;15.94;100.00
75740;BME280;64357;51.344;6.550;2023-08-06T05:16:03;99864.28;;;16.07;100.00
75740;BME280;64357;51.344;6.550;2023-08-06T05:18:28;99865.91;;;16.20;100.00
75740;BME280;64357;51.344;6.550;2023-08-06T05:20:55;99866.28;;;16.26;100.00
75740;BME280;64357;51.344;6.550;2023-08-06T05:23:21;99864.13;;;16.19;100.00
75740;BME280;64357;51.344;6.550;2023-08-06T05:25:46;99866.88;;;16.22;100.00
75740;BME280;64357;51.344;6.550;2023-08-06T05:28:14;99869.84;;;16.28;100.00
75740;BME280;64357;51.344;6.550;2023-08-06T05:30:41;99876.31;;;16.21;100.00
75740;BME280;64357;51.344;6.550;2023-08-06T05:33:14;99878.03;;;16.36;100.00
75740;BME280;64357;51.344;6.550;2023-08-06T05:35:41;99876.25;;;16.35;100.00
75740;BME280;64357;51.344;6.550;2023-08-06T05:38:06;99882.13;;;16.47;100.00
75740;BME280;64357;51.344;6.550;2023-08-06T05:40:34;99881.69;;;16.11;100.00
75740;BME280;64357;51.344;6.550;2023-08-06T05:42:59;99884.00;;;16.07;100.00
75740;BME280;64357;51.344;6.550;2023-08-06T05:45:27;99885.50;;;15.90;100.00
75740;BME280;64357;51.344;6.550;2023-08-06T05:47:53;99880.28;;;15.75;100.00
75740;BME280;64357;51.344;6.550;2023-08-06T05:50:20;99889.41;;;15.83;100.00
75740;BME280;64357;51.344;6.550;2023-08-06T05:52:48;99899.88;;;15.86;100.00
75740;BME280;64357;51.344;6.550;2023-08-06T05:55:17;99895.22;;;15.81;100.00
75740;BME280;64357;51.344;6.550;2023-08-06T05:57:42;99893.53;;;15.81;100.00
75740;BME280;64357;51.344;6.550;2023-08-06T06:00:10;99903.25;;;15.85;100.00
75740;BME280;64357;51.344;6.550;2023-08-06T06:02:35;99899.44;;;16.07;100.00
75740;BME280;64357;51.344;6.550;2023-08-06T06:05:01;99896.63;;;16.17;100.00
75740;BME280;64357;51.344;6.550;2023-08-06T06:07:26;99906.25;;;16.19;100.00
75740;BME280;64357;51.344;6.550;2023-08-06T06:09:52;99900.72;;;16.13;100.00
75740;BME280;64357;51.344;6.550;2023-08-06T06:12:17;99900.59;;;16.12;100.00
75740;BME280;64357;51.344;6.550;2023-08-06T06:14:46;99906.38;;;16.08;100.00
75740;BME280;64357;51.344;6.550;2023-08-06T06:17:14;99910.75;;;15.95;100.00
75740;BME280;64357;51.344;6.550;2023-08-06T06:19:39;99907.81;;;15.89;100.00
75740;BME280;64357;51.344;6.550;2023-08-06T06:22:05;99915.53;;;15.76;100.00
75740;BME280;64357;51.344;6.550;2023-08-06T06:24:35;99913.75;;;15.75;100.00
75740;BME280;64357;51.344;6.550;2023-08-06T06:27:01;99919.59;;;15.86;100.00
75740;BME280;64357;51.344;6.550;2023-08-06T06:29:28;99919.59;;;15.86;100.00
75740;BME280;64357;51.344;6.550;2023-08-06T06:31:56;99920.09;;;15.80;100.00
75740;BME280;64357;51.344;6.550;2023-08-06T06:34:21;99924.31;;;15.93;100.00
75740;BME280;64357;51.344;6.550;2023-08-06T06:36:47;99918.38;;;15.94;100.00
75740;BME280;64357;51.344;6.550;2023-08-06T06:39:13;99927.66;;;16.05;100.00
75740;BME280;64357;51.344;6.550;2023-08-06T06:41:38;99927.38;;;16.14;100.00
75740;BME280;64357;51.344;6.550;2023-08-06T06:44:04;99936.25;;;16.60;100.00
75740;BME280;64357;51.344;6.550;2023-08-06T06:46:29;99928.78;;;16.93;100.00
75740;BME280;64357;51.344;6.550;2023-08-06T06:48:57;99939.91;;;16.92;100.00
75740;BME280;64357;51.344;6.550;2023-08-06T06:51:24;99941.16;;;16.84;100.00
75740;BME280;64357;51.344;6.550;2023-08-06T06:53:50;99931.28;;;16.91;100.00
75740;BME280;64357;51.344;6.550;2023-08-06T06:56:17;99932.72;;;17.16;100.00
75740;BME280;64357;51.344;6.550;2023-08-06T06:58:42;99940.72;;;17.35;100.00
75740;BME280;64357;51.344;6.550;2023-08-06T07:01:08;99937.78;;;17.44;100.00
75740;BME280;64357;51.344;6.550;2023-08-06T07:03:35;99939.00;;;17.06;100.00
75740;BME280;64357;51.344;6.550;2023-08-06T07:06:03;99941.09;;;17.26;100.00
75740;BME280;64357;51.344;6.550;2023-08-06T07:08:29;99949.28;;;17.19;100.00
75740;BME280;64357;51.344;6.550;2023-08-06T07:11:05;99940.63;;;17.04;100.00
75740;BME280;64357;51.344;6.550;2023-08-06T07:13:34;99942.16;;;17.15;100.00
75740;BME280;64357;51.344;6.550;2023-08-06T07:15:59;99948.22;;;17.30;100.00
75740;BME280;64357;51.344;6.550;2023-08-06T07:18:25;99950.31;;;17.82;100.00
75740;BME280;64357;51.344;6.550;2023-08-06T07:20:51;99939.75;;;18.08;100.00
75740;BME280;64357;51.344;6.550;2023-08-06T07:23:19;99951.41;;;18.33;100.00
75740;BME280;64357;51.344;6.550;2023-08-06T07:25:53;99951.25;;;17.99;100.00
75740;BME280;64357;51.344;6.550;2023-08-06T07:28:21;99952.81;;;17.95;100.00
75740;BME280;64357;51.344;6.550;2023-08-06T07:30:50;99960.25;;;18.05;100.00
75740;BME280;64357;51.344;6.550;2023-08-06T07:33:17;99965.38;;;17.89;100.00
75740;BME280;64357;51.344;6.550;2023-08-06T07:35:43;99956.50;;;18.31;100.00
75740;BME280;64357;51.344;6.550;2023-08-06T07:38:10;99958.03;;;18.75;98.55
75740;BME280;64357;51.344;6.550;2023-08-06T07:40:36;99957.81;;;18.56;98.83
75740;BME280;64357;51.344;6.550;2023-08-06T07:43:03;99946.97;;;18.78;97.86
75740;BME280;64357;51.344;6.550;2023-08-06T07:46:09;99962.56;;;18.79;97.43
75740;BME280;64357;51.344;6.550;2023-08-06T07:48:39;99959.28;;;18.51;99.13
75740;BME280;64357;51.344;6.550;2023-08-06T07:51:40;99953.06;;;18.47;99.89
75740;BME280;64357;51.344;6.550;2023-08-06T07:54:06;99960.13;;;18.35;100.00
75740;BME280;64357;51.344;6.550;2023-08-06T07:56:31;99955.63;;;18.31;100.00
75740;BME280;64357;51.344;6.550;2023-08-06T07:59:04;99959.66;;;18.26;100.00
75740;BME280;64357;51.344;6.550;2023-08-06T08:01:29;99944.81;;;18.54;99.52
75740;BME280;64357;51.344;6.550;2023-08-06T08:03:58;99959.66;;;18.73;97.09
75740;BME280;64357;51.344;6.550;2023-08-06T08:06:29;99958.38;;;19.50;93.59
75740;BME280;64357;51.344;6.550;2023-08-06T08:08:55;99955.13;;;19.70;92.86
75740;BME280;64357;51.344;6.550;2023-08-06T08:11:23;99963.13;;;18.90;96.33
75740;BME280;64357;51.344;6.550;2023-08-06T08:13:52;99962.63;;;18.64;96.26
75740;BME280;64357;51.344;6.550;2023-08-06T08:16:20;99977.72;;;18.57;97.79
75740;BME280;64357;51.344;6.550;2023-08-06T08:18:48;99974.50;;;18.94;95.44
75740;BME280;64357;51.344;6.550;2023-08-06T08:21:14;99975.16;;;18.89;94.76
75740;BME280;64357;51.344;6.550;2023-08-06T08:23:42;99970.00;;;19.06;94.49
75740;BME280;64357;51.344;6.550;2023-08-06T08:26:10;99964.25;;;18.95;94.35
75740;BME280;64357;51.344;6.550;2023-08-06T08:28:35;99984.78;;;18.76;96.34
75740;BME280;64357;51.344;6.550;2023-08-06T08:31:01;99983.84;;;18.43;98.04
75740;BME280;64357;51.344;6.550;2023-08-06T08:33:29;99983.88;;;18.28;97.84
75740;BME280;64357;51.344;6.550;2023-08-06T08:35:54;99982.78;;;18.39;97.99
75740;BME280;64357;51.344;6.550;2023-08-06T08:38:22;99983.38;;;18.50;96.16
75740;BME280;64357;51.344;6.550;2023-08-06T08:40:51;99982.81;;;18.55;96.47
75740;BME280;64357;51.344;6.550;2023-08-06T08:43:23;99990.88;;;18.45;97.03
75740;BME280;64357;51.344;6.550;2023-08-06T08:45:58;99982.38;;;18.31;97.22
75740;BME280;64357;51.344;6.550;2023-08-06T08:48:27;99990.56;;;18.55;96.90
75740;BME280;64357;51.344;6.550;2023-08-06T08:51:23;99983.78;;;19.57;91.39
75740;BME280;64357;51.344;6.550;2023-08-06T08:53:52;99993.47;;;19.43;93.20
75740;BME280;64357;51.344;6.550;2023-08-06T08:56:37;99993.84;;;18.68;95.13
75740;BME280;64357;51.344;6.550;2023-08-06T08:59:05;99995.63;;;18.37;95.07
75740;BME280;64357;51.344;6.550;2023-08-06T09:01:34;99999.72;;;18.18;100.00
75740;BME280;64357;51.344;6.550;2023-08-06T09:04:00;100005.84;;;17.89;100.00
75740;BME280;64357;51.344;6.550;2023-08-06T09:06:51;100004.56;;;17.97;100.00
75740;BME280;64357;51.344;6.550;2023-08-06T09:09:24;99998.81;;;18.17;100.00
75740;BME280;64357;51.344;6.550;2023-08-06T09:11:55;100007.38;;;18.16;100.00
75740;BME280;64357;51.344;6.550;2023-08-06T09:14:24;100006.34;;;18.29;100.00
75740;BME280;64357;51.344;6.550;2023-08-06T09:16:56;100002.66;;;18.09;100.00
75740;BME280;64357;51.344;6.550;2023-08-06T09:19:22;100003.25;;;17.89;100.00
75740;BME280;64357;51.344;6.550;2023-08-06T09:21:51;99999.22;;;17.49;100.00
75740;BME280;64357;51.344;6.550;2023-08-06T09:24:19;100028.56;;;17.22;100.00
75740;BME280;64357;51.344;6.550;2023-08-06T09:26:50;100016.91;;;17.14;100.00
75740;BME280;64357;51.344;6.550;2023-08-06T09:29:19;100027.38;;;17.02;100.00
75740;BME280;64357;51.344;6.550;2023-08-06T09:31:46;100028.47;;;16.77;100.00
75740;BME280;64357;51.344;6.550;2023-08-06T09:34:24;100040.38;;;16.75;100.00
75740;BME280;64357;51.344;6.550;2023-08-06T09:36:54;100023.13;;;16.74;100.00
75740;BME280;64357;51.344;6.550;2023-08-06T09:39:40;100034.03;;;16.70;100.00
75740;BME280;64357;51.344;6.550;2023-08-06T09:42:06;100036.22;;;16.77;100.00
75740;BME280;64357;51.344;6.550;2023-08-06T09:44:35;100039.63;;;16.91;100.00
75740;BME280;64357;51.344;6.550;2023-08-06T09:47:03;100030.47;;;16.96;100.00
75740;BME280;64357;51.344;6.550;2023-08-06T09:52:03;100049.66;;;17.15;100.00
75740;BME280;64357;51.344;6.550;2023-08-06T09:54:40;100038.00;;;17.21;100.00
75740;BME280;64357;51.344;6.550;2023-08-06T09:57:10;100055.28;;;16.94;100.00
75740;BME280;64357;51.344;6.550;2023-08-06T09:59:38;100056.34;;;16.57;100.00
75740;BME280;64357;51.344;6.550;2023-08-06T10:02:12;100058.75;;;16.40;100.00
75740;BME280;64357;51.344;6.550;2023-08-06T10:04:38;100062.25;;;16.14;100.00
75740;BME280;64357;51.344;6.550;2023-08-06T10:07:04;100074.84;;;16.36;100.00
75740;BME280;64357;51.344;6.550;2023-08-06T10:09:30;100071.63;;;16.00;100.00
75740;BME280;64357;51.344;6.550;2023-08-06T10:12:08;100083.28;;;15.69;100.00
75740;BME280;64357;51.344;6.550;2023-08-06T10:14:46;100079.91;;;15.32;100.00
75740;BME280;64357;51.344;6.550;2023-08-06T10:17:30;100080.41;;;14.89;100.00
75740;BME280;64357;51.344;6.550;2023-08-06T10:20:07;100092.91;;;14.97;100.00
75740;BME280;64357;51.344;6.550;2023-08-06T10:25:57;100088.34;;;14.81;100.00
75740;BME280;64357;51.344;6.550;2023-08-06T10:28:36;100099.66;;;14.71;100.00
75740;BME280;64357;51.344;6.550;2023-08-06T10:31:17;100099.53;;;14.81;100.00
75740;BME280;64357;51.344;6.550;2023-08-06T10:34:02;100085.75;;;14.92;100.00
75740;BME280;64357;51.344;6.550;2023-08-06T10:36:33;100098.50;;;14.91;100.00
75740;BME280;64357;51.344;6.550;2023-08-06T10:38:58;100110.25;;;14.87;100.00
75740;BME280;64357;51.344;6.550;2023-08-06T10:41:29;100091.59;;;14.90;100.00
75740;BME280;64357;51.344;6.550;2023-08-06T10:44:25;100111.38;;;14.91;100.00
75740;BME280;64357;51.344;6.550;2023-08-06T10:49:57;100119.00;;;14.78;100.00
75740;BME280;64357;51.344;6.550;2023-08-06T10:52:25;100121.41;;;14.88;100.00
75740;BME280;64357;51.344;6.550;2023-08-06T10:54:50;100121.88;;;14.82;100.00
75740;BME280;64357;51.344;6.550;2023-08-06T10:57:16;100122.91;;;14.84;100.00
75740;BME280;64357;51.344;6.550;2023-08-06T10:59:50;100130.47;;;14.94;100.00
75740;BME280;64357;51.344;6.550;2023-08-06T11:02:25;100126.63;;;15.13;100.00
75740;BME280;64357;51.344;6.550;2023-08-06T11:04:56;100133.91;;;15.07;100.00
75740;BME280;64357;51.344;6.550;2023-08-06T11:07:24;100137.25;;;15.06;100.00
75740;BME280;64357;51.344;6.550;2023-08-06T11:10:01;100138.41;;;14.98;100.00
75740;BME280;64357;51.344;6.550;2023-08-06T11:12:26;100127.88;;;14.94;100.00
75740;BME280;64357;51.344;6.550;2023-08-06T11:14:55;100131.97;;;14.79;100.00
75740;BME280;64357;51.344;6.550;2023-08-06T11:17:21;100152.53;;;14.79;100.00
75740;BME280;64357;51.344;6.550;2023-08-06T11:19:47;100143.69;;;14.76;100.00
75740;BME280;64357;51.344;6.550;2023-08-06T11:22:14;100147.94;;;14.87;100.00
75740;BME280;64357;51.344;6.550;2023-08-06T11:24:40;100115.41;;;14.76;100.00
75740;BME280;64357;51.344;6.550;2023-08-06T11:27:15;100148.34;;;14.93;100.00
75740;BME280;64357;51.344;6.550;2023-08-06T11:29:42;100149.81;;;15.01;100.00
75740;BME280;64357;51.344;6.550;2023-08-06T11:32:11;100148.53;;;15.19;100.00
75740;BME280;64357;51.344;6.550;2023-08-06T11:34:45;100157.88;;;15.31;100.00
75740;BME280;64357;51.344;6.550;2023-08-06T11:37:15;100140.69;;;15.18;100.00
75740;BME280;64357;51.344;6.550;2023-08-06T11:39:48;100160.09;;;15.38;100.00
75740;BME280;64357;51.344;6.550;2023-08-06T11:42:14;100170.84;;;15.32;100.00
75740;BME280;64357;51.344;6.550;2023-08-06T11:44:44;100162.78;;;15.39;100.00
75740;BME280;64357;51.344;6.550;2023-08-06T11:47:13;100162.34;;;15.33;100.00
75740;BME280;64357;51.344;6.550;2023-08-06T11:49:40;100164.78;;;15.43;100.00
75740;BME280;64357;51.344;6.550;2023-08-06T11:52:27;100172.44;;;15.30;100.00
75740;BME280;64357;51.344;6.550;2023-08-06T11:55:06;100173.00;;;15.26;100.00
75740;BME280;64357;51.344;6.550;2023-08-06T11:57:35;100184.13;;;15.13;100.00
75740;BME280;64357;51.344;6.550;2023-08-06T12:02:32;100183.47;;;15.04;100.00
75740;BME280;64357;51.344;6.550;2023-08-06T12:05:32;100189.25;;;15.13;100.00
75740;BME280;64357;51.344;6.550;2023-08-06T12:08:01;100195.66;;;15.07;100.00
75740;BME280;64357;51.344;6.550;2023-08-06T12:10:28;100191.97;;;14.91;100.00
75740;BME280;64357;51.344;6.550;2023-08-06T12:12:54;100188.53;;;14.91;100.00
75740;BME280;64357;51.344;6.550;2023-08-06T12:15:20;100205.72;;;14.92;100.00
75740;BME280;64357;51.344;6.550;2023-08-06T12:17:46;100204.94;;;14.93;100.00
75740;BME280;64357;51.344;6.550;2023-08-06T12:20:13;100203.03;;;15.02;100.00
75740;BME280;64357;51.344;6.550;2023-08-06T12:22:41;100197.13;;;14.91;100.00
75740;BME280;64357;51.344;6.550;2023-08-06T12:25:07;100201.84;;;14.85;100.00
75740;BME280;64357;51.344;6.550;2023-08-06T12:27:44;100204.94;;;14.93;100.00
75740;BME280;64357;51.344;6.550;2023-08-06T12:30:11;100202.47;;;14.83;100.00
75740;BME280;64357;51.344;6.550;2023-08-06T12:32:37;100206.97;;;14.85;100.00
75740;BME280;64357;51.344;6.550;2023-08-06T12:35:06;100208.56;;;14.83;100.00
75740;BME280;64357;51.344;6.550;2023-08-06T12:37:33;100206.53;;;14.79;100.00
75740;BME280;64357;51.344;6.550;2023-08-06T12:39:58;100208.06;;;14.77;100.00
75740;BME280;64357;51.344;6.550;2023-08-06T12:42:26;100211.44;;;14.64;100.00
75740;BME280;64357;51.344;6.550;2023-08-06T12:44:51;100214.34;;;14.69;100.00
75740;BME280;64357;51.344;6.550;2023-08-06T12:47:18;100228.34;;;14.73;100.00
75740;BME280;64357;51.344;6.550;2023-08-06T12:49:45;100217.38;;;14.75;100.00
75740;BME280;64357;51.344;6.550;2023-08-06T12:52:11;100221.28;;;14.82;100.00
75740;BME280;64357;51.344;6.550;2023-08-06T12:54:40;100214.78;;;14.75;100.00
75740;BME280;64357;51.344;6.550;2023-08-06T12:57:08;100220.03;;;14.88;100.00
75740;BME280;64357;51.344;6.550;2023-08-06T12:59:36;100215.47;;;14.84;100.00
75740;BME280;64357;51.344;6.550;2023-08-06T13:02:01;100219.28;;;14.78;100.00
75740;BME280;64357;51.344;6.550;2023-08-06T13:04:27;100219.38;;;14.79;100.00
75740;BME280;64357;51.344;6.550;2023-08-06T13:06:58;100231.34;;;14.67;100.00
75740;BME280;64357;51.344;6.550;2023-08-06T13:09:23;100228.34;;;14.61;100.00
75740;BME280;64357;51.344;6.550;2023-08-06T13:11:52;100234.81;;;14.68;100.00